sensor_id;sensor_type;location;lat;lon;timestamp;pressure;altitude;pressure_sealevel;temperature;humidity
81299;BME280;70766;53.170;18.160;2024-02-23T00:03:06;98603.48;;;7.91;100.00
81299;BME280;70766;53.170;18.160;2024-02-23T00:07:04;98602.63;;;7.93;100.00
81299;BME280;70766;53.170;18.160;2024-02-23T00:11:29;98598.86;;;7.96;100.00
81299;BME280;70766;53.170;18.160;2024-02-23T00:39:15;98588.05;;;8.08;100.00
81299;BME280;70766;53.170;18.160;2024-02-23T00:53:07;98579.91;;;8.16;100.00
81299;BME280;70766;53.170;18.160;2024-02-23T01:27:03;98553.66;;;8.34;100.00
81299;BME280;70766;53.170;18.160;2024-02-23T01:44:19;98550.51;;;8.34;100.00
81299;BME280;70766;53.170;18.160;2024-02-23T01:49:05;98554.30;;;8.34;100.00
81299;BME280;70766;53.170;18.160;2024-02-23T01:53:06;98555.89;;;8.29;100.00
81299;BME280;70766;53.170;18.160;2024-02-23T01:57:18;98565.95;;;8.22;100.00
81299;BME280;70766;53.170;18.160;2024-02-23T02:05:46;98571.41;;;8.11;100.00
81299;BME280;70766;53.170;18.160;2024-02-23T02:19:11;98565.27;;;8.05;100.00
81299;BME280;70766;53.170;18.160;2024-02-23T02:23:21;98574.86;;;8.08;100.00
81299;BME280;70766;53.170;18.160;2024-02-23T02:40:00;98564.46;;;8.13;100.00
81299;BME280;70766;53.170;18.160;2024-02-23T02:47:39;98561.46;;;8.10;100.00
81299;BME280;70766;53.170;18.160;2024-02-23T03:01:32;98535.13;;;8.09;100.00
81299;BME280;70766;53.170;18.160;2024-02-23T03:26:41;98574.23;;;8.27;100.00
81299;BME280;70766;53.170;18.160;2024-02-23T03:31:29;98584.98;;;8.32;100.00
81299;BME280;70766;53.170;18.160;2024-02-23T03:52:52;98594.27;;;8.48;100.00
81299;BME280;70766;53.170;18.160;2024-02-23T03:57:01;98603.38;;;8.51;100.00
81299;BME280;70766;53.170;18.160;2024-02-23T04:05:25;98623.12;;;8.57;100.00
81299;BME280;70766;53.170;18.160;2024-02-23T04:09:10;98623.73;;;8.60;100.00
81299;BME280;70766;53.170;18.160;2024-02-23T04:13:44;98631.85;;;8.61;100.00
81299;BME280;70766;53.170;18.160;2024-02-23T04:18:26;98640.90;;;8.64;100.00
81299;BME280;70766;53.170;18.160;2024-02-23T04:31:33;98649.71;;;8.67;100.00
81299;BME280;70766;53.170;18.160;2024-02-23T04:44:52;98655.91;;;8.78;100.00
81299;BME280;70766;53.170;18.160;2024-02-23T04:58:07;98671.02;;;8.89;100.00
81299;BME280;70766;53.170;18.160;2024-02-23T05:14:57;98693.52;;;8.96;100.00
81299;BME280;70766;53.170;18.160;2024-02-23T05:18:48;98694.59;;;8.98;100.00
81299;BME280;70766;53.170;18.160;2024-02-23T05:45:13;98735.11;;;9.26;100.00
81299;BME280;70766;53.170;18.160;2024-02-23T05:53:07;98749.16;;;9.36;100.00
81299;BME280;70766;53.170;18.160;2024-02-23T06:05:34;98785.88;;;9.58;100.00
81299;BME280;70766;53.170;18.160;2024-02-23T07:10:37;98917.71;;;10.14;93.49
81299;BME280;70766;53.170;18.160;2024-02-23T07:28:29;98951.42;;;10.58;79.99
81299;BME280;70766;53.170;18.160;2024-02-23T07:32:51;98967.04;;;10.60;79.07
81299;BME280;70766;53.170;18.160;2024-02-23T09:06:08;99167.33;;;10.54;66.47
81299;BME280;70766;53.170;18.160;2024-02-23T09:20:15;99180.23;;;10.99;68.43
81299;BME280;70766;53.170;18.160;2024-02-23T09:39:05;99209.15;;;11.59;69.12
81299;BME280;70766;53.170;18.160;2024-02-23T09:58:19;99257.13;;;11.58;65.81
81299;BME280;70766;53.170;18.160;2024-02-23T10:35:59;99341.34;;;12.33;56.69
81299;BME280;70766;53.170;18.160;2024-02-23T10:59:15;99372.73;;;11.96;54.59
81299;BME280;70766;53.170;18.160;2024-02-23T11:22:57;99393.86;;;13.01;54.09
81299;BME280;70766;53.170;18.160;2024-02-23T11:40:42;99401.34;;;13.05;52.19
81299;BME280;70766;53.170;18.160;2024-02-23T11:43:13;99400.21;;;13.38;51.87
81299;BME280;70766;53.170;18.160;2024-02-23T11:45:46;99407.70;;;13.65;52.47
81299;BME280;70766;53.170;18.160;2024-02-23T11:48:16;99404.41;;;13.93;52.07
81299;BME280;70766;53.170;18.160;2024-02-23T11:50:48;99402.62;;;14.05;51.72
81299;BME280;70766;53.170;18.160;2024-02-23T11:53:17;99403.69;;;14.26;51.94
81299;BME280;70766;53.170;18.160;2024-02-23T11:55:48;99406.01;;;14.41;53.33
81299;BME280;70766;53.170;18.160;2024-02-23T11:58:17;99410.23;;;14.30;51.69
81299;BME280;70766;53.170;18.160;2024-02-23T12:00:46;99413.39;;;14.07;52.30
81299;BME280;70766;53.170;18.160;2024-02-23T12:03:14;99415.24;;;13.96;53.04
81299;BME280;70766;53.170;18.160;2024-02-23T12:05:43;99416.83;;;13.92;53.96
81299;BME280;70766;53.170;18.160;2024-02-23T12:08:12;99417.83;;;13.98;53.08
81299;BME280;70766;53.170;18.160;2024-02-23T12:10:40;99416.78;;;14.18;53.69
81299;BME280;70766;53.170;18.160;2024-02-23T12:13:09;99426.10;;;14.31;53.57
81299;BME280;70766;53.170;18.160;2024-02-23T12:15:38;99422.73;;;14.18;53.03
81299;BME280;70766;53.170;18.160;2024-02-23T12:18:11;99435.95;;;14.09;55.11
81299;BME280;70766;53.170;18.160;2024-02-23T12:20:39;99435.02;;;13.80;52.93
81299;BME280;70766;53.170;18.160;2024-02-23T12:23:08;99434.52;;;13.62;52.10
81299;BME280;70766;53.170;18.160;2024-02-23T12:25:38;99439.04;;;13.66;51.99
81299;BME280;70766;53.170;18.160;2024-02-23T12:28:10;99443.61;;;13.63;52.65
81299;BME280;70766;53.170;18.160;2024-02-23T12:30:39;99443.45;;;13.37;51.65
81299;BME280;70766;53.170;18.160;2024-02-23T12:33:07;99440.89;;;13.31;53.71
81299;BME280;70766;53.170;18.160;2024-02-23T12:35:37;99440.60;;;13.33;51.97
81299;BME280;70766;53.170;18.160;2024-02-23T12:38:05;99440.08;;;13.59;51.24
81299;BME280;70766;53.170;18.160;2024-02-23T12:40:34;99454.08;;;13.87;51.32
81299;BME280;70766;53.170;18.160;2024-02-23T12:43:02;99450.30;;;13.79;50.33
81299;BME280;70766;53.170;18.160;2024-02-23T12:45:30;99449.34;;;13.73;53.04
81299;BME280;70766;53.170;18.160;2024-02-23T12:47:59;99458.80;;;13.81;52.14
81299;BME280;70766;53.170;18.160;2024-02-23T12:50:30;99464.94;;;13.72;51.85
81299;BME280;70766;53.170;18.160;2024-02-23T12:52:59;99462.98;;;13.61;53.19
81299;BME280;70766;53.170;18.160;2024-02-23T12:55:29;99468.88;;;13.40;52.75
81299;BME280;70766;53.170;18.160;2024-02-23T12:57:57;99472.01;;;13.11;52.70
81299;BME280;70766;53.170;18.160;2024-02-23T13:00:25;99484.19;;;12.74;53.50
81299;BME280;70766;53.170;18.160;2024-02-23T13:02:54;99487.13;;;12.47;54.63
81299;BME280;70766;53.170;18.160;2024-02-23T13:05:23;99491.77;;;12.23;55.17
81299;BME280;70766;53.170;18.160;2024-02-23T13:07:51;99500.27;;;12.01;55.20
81299;BME280;70766;53.170;18.160;2024-02-23T13:10:20;99511.11;;;11.86;55.34
81299;BME280;70766;53.170;18.160;2024-02-23T13:12:48;99524.14;;;11.76;56.16
81299;BME280;70766;53.170;18.160;2024-02-23T13:15:17;99533.75;;;11.64;56.71
81299;BME280;70766;53.170;18.160;2024-02-23T13:17:49;99539.45;;;11.59;57.10
81299;BME280;70766;53.170;18.160;2024-02-23T13:20:17;99543.71;;;11.44;56.80
81299;BME280;70766;53.170;18.160;2024-02-23T13:22:45;99545.79;;;11.33;57.09
81299;BME280;70766;53.170;18.160;2024-02-23T13:25:14;99550.83;;;11.29;56.56
81299;BME280;70766;53.170;18.160;2024-02-23T13:27:42;99556.92;;;11.36;57.29
81299;BME280;70766;53.170;18.160;2024-02-23T13:30:11;99563.44;;;11.28;55.73
81299;BME280;70766;53.170;18.160;2024-02-23T13:32:41;99564.13;;;11.27;56.21
81299;BME280;70766;53.170;18.160;2024-02-23T13:35:10;99572.27;;;11.18;56.66
81299;BME280;70766;53.170;18.160;2024-02-23T13:37:42;99574.99;;;11.08;57.23
81299;BME280;70766;53.170;18.160;2024-02-23T13:40:11;99577.75;;;11.03;57.15
81299;BME280;70766;53.170;18.160;2024-02-23T13:42:39;99582.86;;;10.93;56.47
81299;BME280;70766;53.170;18.160;2024-02-23T13:45:08;99583.42;;;10.83;56.21
81299;BME280;70766;53.170;18.160;2024-02-23T13:47:36;99583.39;;;10.80;57.11
81299;BME280;70766;53.170;18.160;2024-02-23T13:50:08;99583.05;;;10.69;55.89
81299;BME280;70766;53.170;18.160;2024-02-23T13:52:38;99579.98;;;10.67;56.73
81299;BME280;70766;53.170;18.160;2024-02-23T13:55:07;99582.38;;;10.65;58.45
81299;BME280;70766;53.170;18.160;2024-02-23T13:57:35;99584.51;;;10.62;57.97
81299;BME280;70766;53.170;18.160;2024-02-23T14:00:04;99589.19;;;10.60;57.30
81299;BME280;70766;53.170;18.160;2024-02-23T14:02:38;99596.23;;;10.65;57.54
81299;BME280;70766;53.170;18.160;2024-02-23T14:05:10;99599.11;;;10.64;57.42
81299;BME280;70766;53.170;18.160;2024-02-23T14:07:38;99593.05;;;10.58;57.25
81299;BME280;70766;53.170;18.160;2024-02-23T14:10:07;99582.05;;;10.60;57.79
81299;BME280;70766;53.170;18.160;2024-02-23T14:12:36;99572.60;;;10.59;57.51
81299;BME280;70766;53.170;18.160;2024-02-23T14:15:04;99569.44;;;10.64;57.53
81299;BME280;70766;53.170;18.160;2024-02-23T14:17:33;99566.17;;;10.76;57.83
81299;BME280;70766;53.170;18.160;2024-02-23T14:20:03;99569.48;;;10.97;57.83
81299;BME280;70766;53.170;18.160;2024-02-23T14:22:32;99567.02;;;11.12;56.69
81299;BME280;70766;53.170;18.160;2024-02-23T14:25:00;99570.58;;;11.13;56.85
81299;BME280;70766;53.170;18.160;2024-02-23T14:27:28;99574.83;;;11.09;56.69
81299;BME280;70766;53.170;18.160;2024-02-23T14:29:58;99577.16;;;10.92;55.03
81299;BME280;70766;53.170;18.160;2024-02-23T14:32:27;99574.17;;;10.71;54.42
81299;BME280;70766;53.170;18.160;2024-02-23T14:34:57;99576.86;;;10.61;56.59
81299;BME280;70766;53.170;18.160;2024-02-23T14:37:26;99573.41;;;10.49;56.89
81299;BME280;70766;53.170;18.160;2024-02-23T14:39:54;99571.78;;;10.47;57.81
81299;BME280;70766;53.170;18.160;2024-02-23T14:42:24;99570.23;;;10.47;57.98
81299;BME280;70766;53.170;18.160;2024-02-23T14:44:54;99574.65;;;10.50;59.63
81299;BME280;70766;53.170;18.160;2024-02-23T14:47:24;99584.98;;;10.48;59.38
81299;BME280;70766;53.170;18.160;2024-02-23T14:50:02;99590.23;;;10.42;59.57
81299;BME280;70766;53.170;18.160;2024-02-23T14:52:31;99592.39;;;10.34;58.69
81299;BME280;70766;53.170;18.160;2024-02-23T14:54:59;99600.16;;;10.28;59.45
81299;BME280;70766;53.170;18.160;2024-02-23T14:57:27;99602.31;;;10.25;60.52
81299;BME280;70766;53.170;18.160;2024-02-23T14:59:55;99606.45;;;10.25;61.17
81299;BME280;70766;53.170;18.160;2024-02-23T15:02:24;99609.73;;;10.21;60.41
81299;BME280;70766;53.170;18.160;2024-02-23T15:04:52;99614.08;;;10.17;59.78
81299;BME280;70766;53.170;18.160;2024-02-23T15:07:20;99615.20;;;10.13;61.63
81299;BME280;70766;53.170;18.160;2024-02-23T15:09:51;99614.88;;;10.09;62.35
81299;BME280;70766;53.170;18.160;2024-02-23T15:12:22;99618.42;;;10.03;61.79
81299;BME280;70766;53.170;18.160;2024-02-23T15:14:54;99618.77;;;9.98;62.74
81299;BME280;70766;53.170;18.160;2024-02-23T15:17:25;99624.52;;;9.86;63.40
81299;BME280;70766;53.170;18.160;2024-02-23T15:19:58;99630.07;;;9.77;63.74
81299;BME280;70766;53.170;18.160;2024-02-23T15:22:29;99635.45;;;9.68;64.11
81299;BME280;70766;53.170;18.160;2024-02-23T15:24:57;99640.13;;;9.58;63.65
81299;BME280;70766;53.170;18.160;2024-02-23T15:27:28;99635.06;;;9.50;64.82
81299;BME280;70766;53.170;18.160;2024-02-23T15:29:56;99638.91;;;9.41;65.18
81299;BME280;70766;53.170;18.160;2024-02-23T15:32:25;99643.91;;;9.32;64.17
81299;BME280;70766;53.170;18.160;2024-02-23T15:34:53;99648.40;;;9.26;65.14
81299;BME280;70766;53.170;18.160;2024-02-23T15:37:21;99656.10;;;9.19;65.50
81299;BME280;70766;53.170;18.160;2024-02-23T15:39:49;99652.34;;;9.11;65.54
81299;BME280;70766;53.170;18.160;2024-02-23T15:42:17;99655.39;;;9.06;66.12
81299;BME280;70766;53.170;18.160;2024-02-23T15:44:48;99660.02;;;9.01;66.15
81299;BME280;70766;53.170;18.160;2024-02-23T15:47:16;99657.90;;;8.96;66.29
81299;BME280;70766;53.170;18.160;2024-02-23T15:49:45;99656.31;;;8.92;66.48
81299;BME280;70766;53.170;18.160;2024-02-23T15:52:34;99659.14;;;8.88;67.10
81299;BME280;70766;53.170;18.160;2024-02-23T15:55:07;99657.96;;;8.83;67.21
81299;BME280;70766;53.170;18.160;2024-02-23T15:57:40;99654.30;;;8.75;67.42
81299;BME280;70766;53.170;18.160;2024-02-23T16:00:09;99653.32;;;8.65;68.19
81299;BME280;70766;53.170;18.160;2024-02-23T16:02:39;99653.34;;;8.55;68.16
81299;BME280;70766;53.170;18.160;2024-02-23T16:05:08;99656.34;;;8.45;68.47
81299;BME280;70766;53.170;18.160;2024-02-23T16:07:36;99662.13;;;8.36;69.19
81299;BME280;70766;53.170;18.160;2024-02-23T16:10:05;99662.30;;;8.26;69.26
81299;BME280;70766;53.170;18.160;2024-02-23T16:12:33;99665.36;;;8.15;69.71
81299;BME280;70766;53.170;18.160;2024-02-23T16:15:02;99668.94;;;8.05;70.24
81299;BME280;70766;53.170;18.160;2024-02-23T16:17:35;99673.81;;;7.96;70.75
81299;BME280;70766;53.170;18.160;2024-02-23T16:20:08;99674.59;;;7.88;70.66
81299;BME280;70766;53.170;18.160;2024-02-23T16:22:36;99679.83;;;7.80;70.51
81299;BME280;70766;53.170;18.160;2024-02-23T16:25:05;99689.27;;;7.73;71.02
81299;BME280;70766;53.170;18.160;2024-02-23T16:27:33;99694.14;;;7.66;71.12
81299;BME280;70766;53.170;18.160;2024-02-23T16:30:02;99694.59;;;7.59;71.33
81299;BME280;70766;53.170;18.160;2024-02-23T16:32:31;99702.10;;;7.51;71.74
81299;BME280;70766;53.170;18.160;2024-02-23T16:34:59;99702.36;;;7.45;71.65
81299;BME280;70766;53.170;18.160;2024-02-23T16:37:28;99712.57;;;7.39;71.76
81299;BME280;70766;53.170;18.160;2024-02-23T16:39:57;99717.07;;;7.35;71.78
81299;BME280;70766;53.170;18.160;2024-02-23T16:42:26;99724.96;;;7.30;72.19
81299;BME280;70766;53.170;18.160;2024-02-23T16:44:54;99734.84;;;7.26;72.47
81299;BME280;70766;53.170;18.160;2024-02-23T16:47:23;99739.24;;;7.23;73.94
81299;BME280;70766;53.170;18.160;2024-02-23T16:49:51;99739.41;;;7.20;73.50
81299;BME280;70766;53.170;18.160;2024-02-23T16:52:19;99746.09;;;7.16;72.78
81299;BME280;70766;53.170;18.160;2024-02-23T16:54:47;99748.58;;;7.13;73.03
81299;BME280;70766;53.170;18.160;2024-02-23T16:57:15;99756.30;;;7.10;74.78
81299;BME280;70766;53.170;18.160;2024-02-23T16:59:44;99758.84;;;7.08;74.19
81299;BME280;70766;53.170;18.160;2024-02-23T17:02:13;99764.02;;;7.05;74.22
81299;BME280;70766;53.170;18.160;2024-02-23T17:04:41;99765.11;;;7.03;74.60
81299;BME280;70766;53.170;18.160;2024-02-23T17:07:09;99759.48;;;7.00;75.68
81299;BME280;70766;53.170;18.160;2024-02-23T17:09:37;99761.33;;;6.97;77.58
81299;BME280;70766;53.170;18.160;2024-02-23T17:12:06;99762.77;;;6.94;76.02
81299;BME280;70766;53.170;18.160;2024-02-23T17:14:35;99761.05;;;6.91;76.24
81299;BME280;70766;53.170;18.160;2024-02-23T17:17:03;99766.52;;;6.89;75.84
81299;BME280;70766;53.170;18.160;2024-02-23T17:19:32;99765.55;;;6.86;75.80
81299;BME280;70766;53.170;18.160;2024-02-23T17:22:01;99767.94;;;6.84;75.70
81299;BME280;70766;53.170;18.160;2024-02-23T17:24:30;99766.05;;;6.82;76.59
81299;BME280;70766;53.170;18.160;2024-02-23T17:26:58;99760.48;;;6.80;77.17
81299;BME280;70766;53.170;18.160;2024-02-23T17:29:27;99758.84;;;6.77;76.17
81299;BME280;70766;53.170;18.160;2024-02-23T17:31:55;99762.33;;;6.74;76.25
81299;BME280;70766;53.170;18.160;2024-02-23T17:34:24;99761.44;;;6.69;77.94
81299;BME280;70766;53.170;18.160;2024-02-23T17:36:54;99764.09;;;6.63;77.58
81299;BME280;70766;53.170;18.160;2024-02-23T17:39:22;99763.53;;;6.55;76.91
81299;BME280;70766;53.170;18.160;2024-02-23T17:41:51;99760.77;;;6.46;77.85
81299;BME280;70766;53.170;18.160;2024-02-23T17:44:21;99752.63;;;6.37;79.74
81299;BME280;70766;53.170;18.160;2024-02-23T17:46:50;99747.71;;;6.28;79.34
81299;BME280;70766;53.170;18.160;2024-02-23T17:49:18;99747.73;;;6.19;78.96
81299;BME280;70766;53.170;18.160;2024-02-23T17:51:47;99750.44;;;6.08;78.52
81299;BME280;70766;53.170;18.160;2024-02-23T17:54:15;99750.16;;;5.98;78.27
81299;BME280;70766;53.170;18.160;2024-02-23T17:56:43;99746.64;;;5.88;78.37
81299;BME280;70766;53.170;18.160;2024-02-23T17:59:12;99736.27;;;5.81;80.31
81299;BME280;70766;53.170;18.160;2024-02-23T18:01:40;99731.86;;;5.75;79.41
81299;BME280;70766;53.170;18.160;2024-02-23T18:04:09;99732.49;;;5.74;79.04
81299;BME280;70766;53.170;18.160;2024-02-23T18:06:39;99738.14;;;5.78;80.08
81299;BME280;70766;53.170;18.160;2024-02-23T18:09:07;99749.84;;;5.79;79.65
81299;BME280;70766;53.170;18.160;2024-02-23T18:11:36;99751.71;;;5.80;80.06
81299;BME280;70766;53.170;18.160;2024-02-23T18:14:06;99753.52;;;5.80;79.81
81299;BME280;70766;53.170;18.160;2024-02-23T18:16:38;99758.23;;;5.82;81.46
81299;BME280;70766;53.170;18.160;2024-02-23T18:19:07;99766.30;;;5.85;81.36
81299;BME280;70766;53.170;18.160;2024-02-23T18:21:35;99777.15;;;5.88;80.58
81299;BME280;70766;53.170;18.160;2024-02-23T18:24:05;99780.00;;;5.92;82.00
81299;BME280;70766;53.170;18.160;2024-02-23T18:26:35;99786.98;;;5.96;81.41
81299;BME280;70766;53.170;18.160;2024-02-23T18:29:10;99791.05;;;6.02;81.54
81299;BME280;70766;53.170;18.160;2024-02-23T18:31:38;99791.99;;;6.06;80.71
81299;BME280;70766;53.170;18.160;2024-02-23T18:34:06;99793.42;;;6.11;81.98
81299;BME280;70766;53.170;18.160;2024-02-23T18:36:35;99795.14;;;6.15;81.07
81299;BME280;70766;53.170;18.160;2024-02-23T18:39:03;99788.70;;;6.18;80.88
81299;BME280;70766;53.170;18.160;2024-02-23T18:41:31;99788.14;;;6.19;80.52
81299;BME280;70766;53.170;18.160;2024-02-23T18:44:02;99783.06;;;6.19;80.39
81299;BME280;70766;53.170;18.160;2024-02-23T18:46:32;99773.21;;;6.17;82.62
81299;BME280;70766;53.170;18.160;2024-02-23T18:49:00;99766.02;;;6.14;84.20
81299;BME280;70766;53.170;18.160;2024-02-23T18:51:29;99761.00;;;6.08;85.54
81299;BME280;70766;53.170;18.160;2024-02-23T18:53:59;99764.88;;;6.01;84.03
81299;BME280;70766;53.170;18.160;2024-02-23T18:56:28;99768.06;;;5.93;83.52
81299;BME280;70766;53.170;18.160;2024-02-23T18:58:58;99763.65;;;5.84;86.09
81299;BME280;70766;53.170;18.160;2024-02-23T19:01:26;99767.73;;;5.76;84.79
81299;BME280;70766;53.170;18.160;2024-02-23T19:03:54;99772.16;;;5.70;83.39
81299;BME280;70766;53.170;18.160;2024-02-23T19:06:23;99768.06;;;5.64;83.46
81299;BME280;70766;53.170;18.160;2024-02-23T19:08:51;99766.48;;;5.59;85.45
81299;BME280;70766;53.170;18.160;2024-02-23T19:11:20;99767.41;;;5.55;85.26
81299;BME280;70766;53.170;18.160;2024-02-23T19:13:49;99767.64;;;5.51;84.90
81299;BME280;70766;53.170;18.160;2024-02-23T19:16:17;99772.66;;;5.47;84.11
81299;BME280;70766;53.170;18.160;2024-02-23T19:18:47;99774.73;;;5.43;83.91
81299;BME280;70766;53.170;18.160;2024-02-23T19:21:15;99777.85;;;5.43;85.09
81299;BME280;70766;53.170;18.160;2024-02-23T19:23:44;99780.27;;;5.43;84.81
81299;BME280;70766;53.170;18.160;2024-02-23T19:26:12;99780.18;;;5.44;85.40
81299;BME280;70766;53.170;18.160;2024-02-23T19:28:42;99776.36;;;5.44;88.08
81299;BME280;70766;53.170;18.160;2024-02-23T19:31:10;99776.95;;;5.46;87.12
81299;BME280;70766;53.170;18.160;2024-02-23T19:33:39;99777.16;;;5.47;86.23
81299;BME280;70766;53.170;18.160;2024-02-23T19:36:07;99776.05;;;5.49;86.46
81299;BME280;70766;53.170;18.160;2024-02-23T19:38:38;99778.70;;;5.50;85.66
81299;BME280;70766;53.170;18.160;2024-02-23T19:41:06;99783.52;;;5.51;86.34
81299;BME280;70766;53.170;18.160;2024-02-23T19:43:35;99785.29;;;5.51;86.19
81299;BME280;70766;53.170;18.160;2024-02-23T19:46:03;99788.55;;;5.52;87.57
81299;BME280;70766;53.170;18.160;2024-02-23T19:48:46;99793.09;;;5.53;89.77
81299;BME280;70766;53.170;18.160;2024-02-23T19:51:15;99791.40;;;5.52;88.41
81299;BME280;70766;53.170;18.160;2024-02-23T19:53:44;99789.48;;;5.53;86.39
81299;BME280;70766;53.170;18.160;2024-02-23T19:56:12;99786.13;;;5.54;87.13
81299;BME280;70766;53.170;18.160;2024-02-23T19:58:42;99783.36;;;5.56;87.39
81299;BME280;70766;53.170;18.160;2024-02-23T20:01:14;99776.34;;;5.59;89.35
81299;BME280;70766;53.170;18.160;2024-02-23T20:03:42;99783.02;;;5.64;87.46
81299;BME280;70766;53.170;18.160;2024-02-23T20:06:10;99780.55;;;5.66;86.72
81299;BME280;70766;53.170;18.160;2024-02-23T20:08:44;99780.54;;;5.67;87.00
81299;BME280;70766;53.170;18.160;2024-02-23T20:11:12;99787.16;;;5.68;87.12
81299;BME280;70766;53.170;18.160;2024-02-23T20:13:41;99783.48;;;5.67;86.56
81299;BME280;70766;53.170;18.160;2024-02-23T20:16:10;99789.89;;;5.70;87.27
81299;BME280;70766;53.170;18.160;2024-02-23T20:18:39;99793.32;;;5.72;86.19
81299;BME280;70766;53.170;18.160;2024-02-23T20:21:08;99803.05;;;5.73;87.70
81299;BME280;70766;53.170;18.160;2024-02-23T20:23:36;99805.67;;;5.74;87.32
81299;BME280;70766;53.170;18.160;2024-02-23T20:26:05;99807.72;;;5.74;88.31
81299;BME280;70766;53.170;18.160;2024-02-23T20:28:33;99806.77;;;5.75;87.66
81299;BME280;70766;53.170;18.160;2024-02-23T20:31:02;99809.27;;;5.76;87.92
81299;BME280;70766;53.170;18.160;2024-02-23T20:33:34;99805.27;;;5.78;87.48
81299;BME280;70766;53.170;18.160;2024-02-23T20:36:03;99811.05;;;5.78;87.31
81299;BME280;70766;53.170;18.160;2024-02-23T20:38:31;99812.05;;;5.80;88.15
81299;BME280;70766;53.170;18.160;2024-02-23T20:41:00;99810.45;;;5.81;89.63
81299;BME280;70766;53.170;18.160;2024-02-23T20:43:28;99810.11;;;5.83;90.65
81299;BME280;70766;53.170;18.160;2024-02-23T20:45:57;99808.18;;;5.84;89.18
81299;BME280;70766;53.170;18.160;2024-02-23T20:48:27;99804.04;;;5.86;89.16
81299;BME280;70766;53.170;18.160;2024-02-23T20:50:55;99803.54;;;5.89;88.31
81299;BME280;70766;53.170;18.160;2024-02-23T20:53:24;99799.96;;;5.90;91.86
81299;BME280;70766;53.170;18.160;2024-02-23T20:55:52;99799.77;;;5.91;89.38
81299;BME280;70766;53.170;18.160;2024-02-23T20:58:21;99794.39;;;5.90;89.35
81299;BME280;70766;53.170;18.160;2024-02-23T21:00:50;99797.96;;;5.89;88.96
81299;BME280;70766;53.170;18.160;2024-02-23T21:03:18;99799.36;;;5.90;88.42
81299;BME280;70766;53.170;18.160;2024-02-23T21:05:50;99806.57;;;5.90;87.76
81299;BME280;70766;53.170;18.160;2024-02-23T21:08:18;99809.54;;;5.92;88.32
81299;BME280;70766;53.170;18.160;2024-02-23T21:10:46;99810.71;;;5.94;88.26
81299;BME280;70766;53.170;18.160;2024-02-23T21:13:17;99809.10;;;5.95;88.10
81299;BME280;70766;53.170;18.160;2024-02-23T21:15:46;99813.13;;;5.98;88.58
81299;BME280;70766;53.170;18.160;2024-02-23T21:18:14;99808.19;;;6.01;89.62
81299;BME280;70766;53.170;18.160;2024-02-23T21:20:46;99806.31;;;6.04;89.20
81299;BME280;70766;53.170;18.160;2024-02-23T21:23:17;99808.83;;;6.08;88.45
81299;BME280;70766;53.170;18.160;2024-02-23T21:25:46;99809.78;;;6.11;88.55
81299;BME280;70766;53.170;18.160;2024-02-23T21:28:14;99807.13;;;6.13;88.92
81299;BME280;70766;53.170;18.160;2024-02-23T21:30:47;99809.70;;;6.15;90.22
81299;BME280;70766;53.170;18.160;2024-02-23T21:33:22;99808.87;;;6.17;89.85
81299;BME280;70766;53.170;18.160;2024-02-23T21:35:50;99811.34;;;6.18;90.43
81299;BME280;70766;53.170;18.160;2024-02-23T21:38:18;99810.92;;;6.17;90.27
81299;BME280;70766;53.170;18.160;2024-02-23T21:40:47;99810.47;;;6.17;90.11
81299;BME280;70766;53.170;18.160;2024-02-23T21:43:15;99808.08;;;6.18;90.61
81299;BME280;70766;53.170;18.160;2024-02-23T21:45:43;99808.09;;;6.18;90.64
81299;BME280;70766;53.170;18.160;2024-02-23T21:48:12;99807.41;;;6.19;89.92
81299;BME280;70766;53.170;18.160;2024-02-23T21:50:40;99806.14;;;6.19;89.93
81299;BME280;70766;53.170;18.160;2024-02-23T21:53:09;99806.95;;;6.17;90.23
81299;BME280;70766;53.170;18.160;2024-02-23T21:55:37;99806.21;;;6.16;90.44
81299;BME280;70766;53.170;18.160;2024-02-23T21:58:05;99808.89;;;6.16;90.59
81299;BME280;70766;53.170;18.160;2024-02-23T22:00:33;99801.14;;;6.14;90.44
81299;BME280;70766;53.170;18.160;2024-02-23T22:03:03;99801.96;;;6.14;91.08
81299;BME280;70766;53.170;18.160;2024-02-23T22:05:33;99803.70;;;6.13;91.66
81299;BME280;70766;53.170;18.160;2024-02-23T22:08:01;99807.61;;;6.12;91.28
81299;BME280;70766;53.170;18.160;2024-02-23T22:10:29;99803.69;;;6.10;91.27
81299;BME280;70766;53.170;18.160;2024-02-23T22:12:58;99796.40;;;6.09;91.02
81299;BME280;70766;53.170;18.160;2024-02-23T22:15:27;99795.80;;;6.08;91.14
81299;BME280;70766;53.170;18.160;2024-02-23T22:17:55;99792.27;;;6.07;92.80
81299;BME280;70766;53.170;18.160;2024-02-23T22:20:23;99791.20;;;6.05;92.30
81299;BME280;70766;53.170;18.160;2024-02-23T22:22:51;99792.08;;;6.02;92.44
81299;BME280;70766;53.170;18.160;2024-02-23T22:25:20;99800.91;;;6.00;92.07
81299;BME280;70766;53.170;18.160;2024-02-23T22:27:48;99802.20;;;5.96;93.85
81299;BME280;70766;53.170;18.160;2024-02-23T22:30:16;99807.41;;;5.92;93.52
81299;BME280;70766;53.170;18.160;2024-02-23T22:32:45;99814.23;;;5.88;95.55
81299;BME280;70766;53.170;18.160;2024-02-23T22:35:13;99817.87;;;5.85;96.94
81299;BME280;70766;53.170;18.160;2024-02-23T22:37:42;99821.38;;;5.83;95.96
81299;BME280;70766;53.170;18.160;2024-02-23T22:40:10;99820.02;;;5.82;98.14
81299;BME280;70766;53.170;18.160;2024-02-23T22:42:41;99819.56;;;5.78;97.77
81299;BME280;70766;53.170;18.160;2024-02-23T22:45:09;99823.19;;;5.75;99.58
81299;BME280;70766;53.170;18.160;2024-02-23T22:47:39;99829.44;;;5.74;100.00
81299;BME280;70766;53.170;18.160;2024-02-23T22:50:08;99829.45;;;5.73;100.00
81299;BME280;70766;53.170;18.160;2024-02-23T22:52:36;99830.63;;;5.72;100.00
81299;BME280;70766;53.170;18.160;2024-02-23T22:55:05;99828.83;;;5.72;99.52
81299;BME280;70766;53.170;18.160;2024-02-23T22:57:33;99829.92;;;5.72;99.99
81299;BME280;70766;53.170;18.160;2024-02-23T23:00:03;99827.77;;;5.72;99.41